Main page
METAR-TAF:

METAR-TAF

Airports :

Tanagra, Greece

latitude: 38-19N, longitude: 023-32E, elevation: 148 m

METAR: missing

Time: 22:08 (20:08 UTC)

Forecast

The report was made 3 hours and 8 minutes ago, at 17:00 UTC
Forecast valid from 15 at 18 UTC to 16 at 03 UTC
Wind 8 kt from the South/Southeast
Visibility 10 km or more
Few clouds at a height of 1000 ft
Scattered clouds at a height of 3000 ft
Broken clouds at a height of 7000 ft
Probability 30% :
Temporary
from 15 at 18 UTC to 16 at 03 UTC
Visibility: 4000 m
rain
Probability 30% :
Temporary
from 15 at 18 UTC to 16 at 03 UTC
Visibility: 5000 m
Few clouds at a height of 1600 ft, Cumulonimbus.
Broken clouds at a height of 2000 ft
Overcast at a height of 8000 ft
thunderstorm, rain

TAF: LGTG 151700Z 1518/1603 16008KT 9999 FEW010 SCT030 BKN070 PROB30 TEMPO 1518/1603 4000 RA PROB30 TEMPO 1518/1603 5000 TSRA FEW016CB BKN020 OVC080

Weather observations and forecasts of more than 4000 airports (METAR and TAF reports).

The available stations are represented by yellow and red dots on the map.

Hover mouse over dot to see the name of the station.

Then click to see weather observations and forecasts.

To change the map : click on the green buttons with a black cross to zoom in, on the green button with a dash to zoom out, or on the green arrows for adjacent maps.


METAR-TAF: